createdAt,value
2019-03-22T00:01:05.099Z,31.00
2019-03-22T00:03:31.019Z,30.27
2019-03-22T00:05:59.431Z,31.00
2019-03-22T00:08:31.335Z,30.73
2019-03-22T00:10:59.588Z,30.60
2019-03-22T00:13:27.846Z,32.60
2019-03-22T00:15:58.547Z,31.17
2019-03-22T00:18:26.984Z,30.73
2019-03-22T00:20:55.234Z,30.97
2019-03-22T00:23:23.616Z,31.13
2019-03-22T00:25:51.939Z,31.33
2019-03-22T00:28:22.656Z,32.03
2019-03-22T00:30:51.037Z,30.60
2019-03-22T00:33:19.476Z,31.07
2019-03-22T00:35:47.799Z,30.67
2019-03-22T00:38:16.233Z,30.73
2019-03-22T00:40:44.624Z,30.93
2019-03-22T00:43:13.109Z,31.57
2019-03-22T00:45:41.560Z,30.53
2019-03-22T00:48:09.886Z,31.00
2019-03-22T00:50:40.017Z,31.67
2019-03-22T00:53:08.455Z,31.00
2019-03-22T00:55:39.120Z,32.73
2019-03-22T00:58:07.583Z,31.60
2019-03-22T01:00:36.025Z,31.80
2019-03-22T01:03:04.550Z,31.03
2019-03-22T01:05:34.232Z,32.67
2019-03-22T01:08:06.502Z,31.50
2019-03-22T01:10:35.127Z,32.70
2019-03-22T01:13:05.243Z,33.93
2019-03-22T01:15:33.621Z,31.30
2019-03-22T01:18:03.785Z,31.83
2019-03-22T01:20:32.066Z,33.27
2019-03-22T01:23:01.557Z,32.57
2019-03-22T01:25:29.923Z,32.20
2019-03-22T01:27:58.187Z,31.63
2019-03-22T01:30:27.617Z,30.70
2019-03-22T01:32:56.030Z,33.07
2019-03-22T01:35:24.295Z,32.73
2019-03-22T01:37:52.652Z,31.43
2019-03-22T01:40:21.112Z,31.50
2019-03-22T01:42:49.487Z,32.07
2019-03-22T01:45:18.541Z,31.73
2019-03-22T01:47:47.100Z,32.43
2019-03-22T01:50:15.477Z,32.57
2019-03-22T01:52:43.774Z,32.30
2019-03-22T01:55:15.078Z,32.13
2019-03-22T01:57:52.552Z,31.70
2019-03-22T02:00:14.206Z,33.33
2019-03-22T02:02:42.698Z,32.40
2019-03-22T02:05:12.185Z,33.40
2019-03-22T02:07:40.601Z,33.03
2019-03-22T02:10:09.214Z,32.57
2019-03-22T02:12:38.661Z,33.00
2019-03-22T02:15:10.159Z,32.77
2019-03-22T02:17:38.455Z,33.00
2019-03-22T02:20:07.555Z,33.80
2019-03-22T02:22:35.925Z,33.40
2019-03-22T02:25:04.784Z,34.63
2019-03-22T02:27:33.388Z,33.63
2019-03-22T02:30:02.035Z,33.63
2019-03-22T02:32:30.320Z,33.87
2019-03-22T02:34:58.527Z,34.70
2019-03-22T02:37:29.432Z,35.77
2019-03-22T02:39:58.209Z,36.00
2019-03-22T02:42:27.595Z,35.83
2019-03-22T02:44:55.909Z,36.20
2019-03-22T02:47:24.332Z,35.40
2019-03-22T02:49:54.488Z,36.93
2019-03-22T02:52:22.845Z,37.60
2019-03-22T02:54:53.947Z,38.50
2019-03-22T02:57:24.708Z,37.53
2019-03-22T02:59:53.123Z,39.63
2019-03-22T03:02:21.428Z,38.83
2019-03-22T03:04:51.940Z,39.07
2019-03-22T03:07:22.429Z,39.33
2019-03-22T03:09:55.037Z,38.97
2019-03-22T03:12:23.390Z,39.27
2019-03-22T03:14:52.512Z,38.93
2019-03-22T03:17:21.061Z,39.77
2019-03-22T03:19:49.437Z,40.47
2019-03-22T03:22:17.729Z,39.70
2019-03-22T03:24:46.075Z,38.20
2019-03-22T03:27:14.580Z,38.27
2019-03-22T03:29:48.623Z,38.10
2019-03-22T03:32:16.873Z,38.40
2019-03-22T03:34:45.138Z,38.50
2019-03-22T03:37:13.426Z,38.60
2019-03-22T03:39:44.153Z,36.93
2019-03-22T03:42:12.368Z,38.07
2019-03-22T03:44:41.682Z,37.63
2019-03-22T03:47:10.801Z,37.13
2019-03-22T03:49:40.007Z,38.37
2019-03-22T03:52:08.298Z,38.97
2019-03-22T03:54:36.571Z,38.13
2019-03-22T03:57:05.069Z,38.33
2019-03-22T03:59:33.426Z,37.17
2019-03-22T04:02:01.662Z,38.80
2019-03-22T04:04:29.930Z,37.03
2019-03-22T04:07:01.190Z,39.67
2019-03-22T04:09:29.513Z,39.87
2019-03-22T04:11:57.752Z,39.27
2019-03-22T04:14:26.087Z,39.87
2019-03-22T04:16:54.614Z,39.53
2019-03-22T04:19:23.858Z,39.23
2019-03-22T04:21:52.231Z,40.30
2019-03-22T04:24:20.848Z,40.23
2019-03-22T04:26:49.192Z,40.13
2019-03-22T04:29:17.585Z,40.37
2019-03-22T04:31:45.901Z,38.97
2019-03-22T04:34:15.743Z,38.90
2019-03-22T04:36:44.238Z,39.17
2019-03-22T04:39:12.564Z,39.00
2019-03-22T04:41:40.786Z,39.07
2019-03-22T04:44:09.314Z,37.07
2019-03-22T04:46:40.919Z,36.43
2019-03-22T04:49:10.611Z,39.70
2019-03-22T04:51:39.611Z,39.10
2019-03-22T04:54:08.885Z,38.50
2019-03-22T04:56:38.355Z,38.47
2019-03-22T04:59:18.931Z,36.77
2019-03-22T05:01:44.184Z,37.87
2019-03-22T05:04:13.859Z,37.00
2019-03-22T05:06:42.958Z,38.53
2019-03-22T05:09:13.991Z,37.77
2019-03-22T05:11:43.568Z,38.77
2019-03-22T05:14:14.198Z,40.23
2019-03-22T05:16:45.656Z,38.73
2019-03-22T05:19:16.392Z,38.87
2019-03-22T05:21:45.645Z,38.53
2019-03-22T05:24:15.123Z,40.47
2019-03-22T05:26:44.092Z,41.33
2019-03-22T05:29:13.737Z,41.97
2019-03-22T05:31:59.598Z,41.70
2019-03-22T05:34:28.062Z,41.50
2019-03-22T05:36:59.095Z,40.93
2019-03-22T05:39:27.448Z,40.67
2019-03-22T05:41:55.791Z,41.10
2019-03-22T05:44:25.100Z,40.53
2019-03-22T05:46:54.653Z,39.20
2019-03-22T05:49:22.945Z,39.13
2019-03-22T05:51:51.458Z,39.47
2019-03-22T05:54:19.756Z,41.43
2019-03-22T05:56:48.656Z,40.53
2019-03-22T05:59:21.337Z,40.23
2019-03-22T06:01:49.912Z,38.53
2019-03-22T06:04:18.479Z,38.43
2019-03-22T06:06:48.777Z,38.07
2019-03-22T06:09:17.653Z,39.83
2019-03-22T06:11:59.073Z,38.47
2019-03-22T06:14:27.796Z,36.40
2019-03-22T06:17:01.613Z,36.93
2019-03-22T06:19:30.366Z,37.17
2019-03-22T06:21:59.397Z,36.07
2019-03-22T06:24:28.263Z,36.13
2019-03-22T06:26:56.717Z,37.37
2019-03-22T06:29:25.123Z,36.80
2019-03-22T06:31:53.590Z,36.97
2019-03-22T06:34:22.121Z,36.33
2019-03-22T06:36:52.030Z,36.83
2019-03-22T06:39:20.933Z,36.37
2019-03-22T06:41:49.500Z,35.97
2019-03-22T06:44:18.031Z,37.77
2019-03-22T06:46:46.542Z,35.47
2019-03-22T06:49:16.694Z,33.97
2019-03-22T06:51:49.451Z,32.87
2019-03-22T06:54:30.963Z,33.77
2019-03-22T06:56:56.744Z,34.43
2019-03-22T06:59:25.506Z,32.43
2019-03-22T07:01:55.732Z,33.10
2019-03-22T07:04:24.552Z,31.33
2019-03-22T07:06:53.768Z,31.57
2019-03-22T07:09:24.021Z,31.57
2019-03-22T07:14:48.778Z,29.53
2019-03-22T07:17:17.400Z,29.40
2019-03-22T07:19:56.052Z,29.70
2019-03-22T07:22:29.377Z,27.33
2019-03-22T07:24:57.625Z,28.33
2019-03-22T07:27:30.438Z,28.07
2019-03-22T07:30:17.694Z,26.27
2019-03-22T07:32:41.388Z,25.23
2019-03-22T07:35:10.286Z,26.77
2019-03-22T07:37:41.493Z,26.47
2019-03-22T07:40:11.802Z,25.13
2019-03-22T07:42:40.874Z,26.20
2019-03-22T07:45:10.014Z,25.10
2019-03-22T07:47:40.141Z,25.17
2019-03-22T07:50:11.170Z,23.70
2019-03-22T07:52:39.901Z,23.53
2019-03-22T07:55:12.029Z,23.47
2019-03-22T07:57:44.347Z,21.73
2019-03-22T08:00:13.201Z,22.80
2019-03-22T08:02:41.843Z,22.07
2019-03-22T08:05:11.036Z,20.57
2019-03-22T08:07:39.813Z,20.57
2019-03-22T08:10:16.404Z,20.93
2019-03-22T08:12:45.329Z,20.10
2019-03-22T08:15:25.508Z,19.97
2019-03-22T08:17:54.008Z,18.40
2019-03-22T08:20:24.425Z,17.23
2019-03-22T08:22:53.716Z,16.27
2019-03-22T08:25:23.035Z,16.20
2019-03-22T08:27:54.295Z,16.03
2019-03-22T08:30:23.613Z,15.37
2019-03-22T08:32:53.546Z,16.23
2019-03-22T08:35:23.544Z,16.17
2019-03-22T08:37:53.110Z,15.57
2019-03-22T08:40:26.863Z,15.70
2019-03-22T08:42:56.161Z,14.73
2019-03-22T08:45:24.670Z,14.33
2019-03-22T08:47:53.293Z,13.93
2019-03-22T08:50:21.513Z,13.57
2019-03-22T08:52:49.871Z,13.13
2019-03-22T08:55:18.393Z,12.37
2019-03-22T08:57:46.758Z,12.13
2019-03-22T09:00:15.854Z,12.00
2019-03-22T09:02:44.167Z,12.33
2019-03-22T09:05:12.766Z,12.23
2019-03-22T09:07:41.068Z,10.83
2019-03-22T09:10:10.083Z,11.67
2019-03-22T09:12:38.287Z,10.73
2019-03-22T09:15:08.379Z,11.40
2019-03-22T09:17:36.706Z,10.90
2019-03-22T09:20:08.005Z,10.40
2019-03-22T09:22:36.274Z,10.30
2019-03-22T09:25:04.946Z,7.57
2019-03-22T09:27:36.273Z,8.23
2019-03-22T09:30:04.032Z,7.60
2019-03-22T09:32:32.175Z,7.80
2019-03-22T09:35:00.456Z,7.33
2019-03-22T09:37:28.572Z,7.60
2019-03-22T09:39:56.742Z,7.47
2019-03-22T09:42:24.974Z,7.83
2019-03-22T09:44:53.157Z,8.10
2019-03-22T09:47:21.349Z,7.07
2019-03-22T09:49:51.244Z,8.37
2019-03-22T09:52:19.552Z,7.60
2019-03-22T09:54:47.659Z,7.90
2019-03-22T09:57:15.796Z,7.50
2019-03-22T09:59:44.722Z,8.43
2019-03-22T10:02:12.850Z,7.93
2019-03-22T10:04:41.120Z,8.33
2019-03-22T10:07:09.337Z,7.67
2019-03-22T10:09:37.791Z,6.13
2019-03-22T10:12:06.015Z,6.70
2019-03-22T10:14:34.134Z,6.40
2019-03-22T10:17:02.377Z,5.57
2019-03-22T10:19:30.609Z,4.87
2019-03-22T10:21:59.242Z,4.77
2019-03-22T10:24:27.515Z,4.40
2019-03-22T10:26:55.766Z,4.83
2019-03-22T10:29:23.974Z,5.53
2019-03-22T10:31:52.157Z,5.47
2019-03-22T10:34:20.431Z,5.90
2019-03-22T10:36:48.608Z,5.90
2019-03-22T10:39:16.938Z,5.73
2019-03-22T10:41:45.183Z,5.37
2019-03-22T10:44:13.394Z,4.50
2019-03-22T10:46:41.570Z,5.27
2019-03-22T10:49:09.659Z,4.90
2019-03-22T10:51:37.921Z,4.33
2019-03-22T10:54:12.799Z,5.13
2019-03-22T10:56:38.399Z,4.90
2019-03-22T10:59:06.717Z,4.73
2019-03-22T11:01:48.279Z,4.67
2019-03-22T11:06:33.220Z,4.00
2019-03-22T11:09:01.504Z,4.17
2019-03-22T11:11:29.669Z,4.80
2019-03-22T11:13:57.964Z,4.40
2019-03-22T11:16:26.128Z,4.40
2019-03-22T11:18:54.405Z,4.23
2019-03-22T11:21:22.628Z,4.10
2019-03-22T11:23:50.983Z,4.07
2019-03-22T11:26:19.299Z,3.60
2019-03-22T11:28:48.369Z,3.37
2019-03-22T11:31:16.598Z,3.70
2019-03-22T11:33:44.760Z,3.80
2019-03-22T11:36:12.832Z,4.50
2019-03-22T11:38:40.954Z,4.03
2019-03-22T11:41:10.242Z,4.20
2019-03-22T11:43:38.536Z,3.70
2019-03-22T11:46:08.219Z,3.70
2019-03-22T11:48:36.438Z,2.40
2019-03-22T11:51:05.130Z,2.40
2019-03-22T11:53:33.378Z,2.57
2019-03-22T11:56:01.717Z,3.07
2019-03-22T11:58:30.146Z,3.10
2019-03-22T12:00:58.787Z,3.00
2019-03-22T12:03:27.845Z,3.07
2019-03-22T12:05:56.094Z,3.40
2019-03-22T12:08:25.548Z,3.50
2019-03-22T12:10:53.949Z,3.40
2019-03-22T12:13:22.174Z,3.90
2019-03-22T12:15:52.524Z,3.67
2019-03-22T12:18:20.909Z,3.60
2019-03-22T12:20:49.298Z,4.10
2019-03-22T12:23:19.796Z,4.30
2019-03-22T12:25:48.214Z,4.30
2019-03-22T12:28:16.570Z,4.17
2019-03-22T12:30:47.466Z,4.03
2019-03-22T12:33:15.782Z,4.43
2019-03-22T12:35:44.062Z,4.00
2019-03-22T12:38:12.442Z,4.30
2019-03-22T12:40:40.740Z,4.20
2019-03-22T12:43:09.023Z,4.73
2019-03-22T12:45:37.480Z,6.50
2019-03-22T12:48:05.626Z,6.80
2019-03-22T12:50:34.085Z,5.80
2019-03-22T12:53:04.635Z,4.50
2019-03-22T12:55:33.113Z,3.90
2019-03-22T12:58:01.881Z,3.30
2019-03-22T13:00:30.941Z,3.67
2019-03-22T13:02:59.823Z,4.73
2019-03-22T13:05:30.159Z,6.80
2019-03-22T13:08:00.595Z,6.50
2019-03-22T13:10:31.254Z,6.03
2019-03-22T13:12:59.723Z,5.27
2019-03-22T13:15:28.392Z,6.03
2019-03-22T13:17:57.774Z,5.30
2019-03-22T13:20:26.354Z,5.83
2019-03-22T13:22:54.857Z,5.60
2019-03-22T13:25:26.324Z,5.43
2019-03-22T13:27:55.507Z,5.10
2019-03-22T13:30:41.602Z,4.87
2019-03-22T13:33:10.477Z,4.63
2019-03-22T13:35:47.474Z,3.60
2019-03-22T13:38:16.360Z,3.73
2019-03-22T13:40:45.342Z,4.37
2019-03-22T13:43:14.632Z,3.73
2019-03-22T13:45:43.752Z,4.70
2019-03-22T13:48:17.455Z,4.20
2019-03-22T13:50:46.138Z,5.50
2019-03-22T13:53:15.268Z,5.10
2019-03-22T13:55:54.456Z,3.67
2019-03-22T13:58:20.512Z,3.40
2019-03-22T14:00:49.110Z,3.20
2019-03-22T14:03:18.324Z,3.40
2019-03-22T14:05:47.900Z,3.37
2019-03-22T14:08:18.342Z,3.73
2019-03-22T14:10:47.753Z,3.73
2019-03-22T14:13:16.815Z,3.77
2019-03-22T14:15:45.917Z,4.00
2019-03-22T14:18:19.314Z,4.33
2019-03-22T14:20:50.109Z,4.67
2019-03-22T14:23:18.975Z,3.93
2019-03-22T14:25:49.537Z,4.47
2019-03-22T14:28:18.977Z,4.07
2019-03-22T14:30:48.037Z,3.90
2019-03-22T14:33:16.867Z,4.67
2019-03-22T14:35:47.736Z,4.00
2019-03-22T14:38:18.725Z,3.93
2019-03-22T14:40:47.113Z,3.97
2019-03-22T14:43:18.335Z,3.90
2019-03-22T14:45:47.159Z,3.60
2019-03-22T14:48:15.702Z,3.70
2019-03-22T14:50:44.222Z,4.20
2019-03-22T14:53:12.678Z,4.40
2019-03-22T14:55:42.752Z,4.63
2019-03-22T14:58:11.161Z,4.23
2019-03-22T15:00:45.403Z,4.60
2019-03-22T15:05:45.425Z,4.20
2019-03-22T15:08:20.831Z,3.87
2019-03-22T15:10:46.421Z,3.87
2019-03-22T15:13:14.652Z,4.07
2019-03-22T15:16:05.352Z,3.90
2019-03-22T15:19:01.514Z,3.60
2019-03-22T15:21:58.448Z,3.60
2019-03-22T15:24:45.493Z,3.30
2019-03-22T15:27:39.131Z,3.97
2019-03-22T15:30:42.010Z,3.33
2019-03-22T15:33:38.770Z,3.90
2019-03-22T15:36:29.280Z,3.80
2019-03-22T15:42:02.463Z,4.00
2019-03-22T15:44:30.860Z,3.90
2019-03-22T15:47:01.460Z,3.73
2019-03-22T15:49:29.796Z,4.00
2019-03-22T15:51:58.177Z,3.73
2019-03-22T15:54:26.727Z,3.40
2019-03-22T15:56:55.130Z,4.07
2019-03-22T15:59:23.427Z,3.77
2019-03-22T16:01:51.535Z,3.50
2019-03-22T16:04:20.173Z,3.60
2019-03-22T16:06:48.400Z,3.50
2019-03-22T16:09:16.980Z,3.60
2019-03-22T16:11:45.269Z,3.80
2019-03-22T16:14:13.638Z,3.60
2019-03-22T16:16:41.998Z,3.67
2019-03-22T16:19:10.357Z,3.43
2019-03-22T16:21:38.934Z,3.83
2019-03-22T16:24:07.096Z,4.63
2019-03-22T16:26:35.345Z,3.90
2019-03-22T16:29:03.601Z,3.67
2019-03-22T16:31:32.010Z,4.00
2019-03-22T16:34:00.305Z,3.60
2019-03-22T16:36:28.650Z,3.83
2019-03-22T16:38:56.989Z,4.23
2019-03-22T16:41:25.181Z,3.70
2019-03-22T16:43:53.449Z,3.40
2019-03-22T16:46:22.718Z,4.07
2019-03-22T16:48:54.886Z,3.33
2019-03-22T16:51:23.157Z,3.40
2019-03-22T16:53:53.782Z,3.03
2019-03-22T16:56:22.076Z,4.60
2019-03-22T16:58:50.415Z,3.60
2019-03-22T17:01:18.792Z,3.50
2019-03-22T17:03:47.166Z,3.33
2019-03-22T17:06:15.386Z,3.07
2019-03-22T17:08:46.218Z,3.57
2019-03-22T17:11:15.199Z,3.60
2019-03-22T17:13:43.644Z,3.70
2019-03-22T17:16:12.042Z,3.77
2019-03-22T17:18:40.995Z,3.23
2019-03-22T17:21:09.394Z,3.37
2019-03-22T17:23:37.701Z,3.67
2019-03-22T17:26:06.040Z,3.37
2019-03-22T17:28:34.388Z,3.70
2019-03-22T17:31:02.763Z,3.60
2019-03-22T17:33:30.918Z,3.50
2019-03-22T17:35:59.223Z,4.00
2019-03-22T17:38:27.632Z,3.83
2019-03-22T17:40:55.897Z,4.20
2019-03-22T17:43:24.226Z,4.70
2019-03-22T17:45:52.670Z,3.80
2019-03-22T17:48:20.998Z,4.50
2019-03-22T17:50:49.202Z,4.20
2019-03-22T17:53:18.063Z,4.27
2019-03-22T17:55:46.458Z,4.77
2019-03-22T17:58:14.819Z,5.07
2019-03-22T18:00:43.336Z,4.50
2019-03-22T18:03:11.580Z,5.13
2019-03-22T18:05:39.855Z,5.37
2019-03-22T18:08:08.051Z,5.70
2019-03-22T18:10:36.370Z,5.47
2019-03-22T18:13:05.910Z,4.57
2019-03-22T18:15:34.254Z,4.57
2019-03-22T18:18:02.518Z,5.00
2019-03-22T18:20:30.870Z,4.33
2019-03-22T18:22:59.171Z,4.37
2019-03-22T18:25:27.428Z,5.27
2019-03-22T18:27:55.812Z,5.07
2019-03-22T18:30:25.446Z,4.97
2019-03-22T18:32:54.126Z,4.63
2019-03-22T18:35:22.363Z,4.47
2019-03-22T18:37:50.843Z,4.07
2019-03-22T18:40:19.100Z,4.80
2019-03-22T18:42:47.391Z,5.27
2019-03-22T18:45:15.781Z,4.67
2019-03-22T18:47:44.126Z,5.00
2019-03-22T18:50:12.667Z,5.00
2019-03-22T18:52:41.129Z,5.10
2019-03-22T18:55:09.834Z,6.43
2019-03-22T18:57:38.368Z,10.17
2019-03-22T19:00:09.867Z,8.20
2019-03-22T19:02:38.077Z,8.70
2019-03-22T19:05:06.709Z,8.43
2019-03-22T19:07:35.088Z,7.50
2019-03-22T19:10:05.424Z,8.43
2019-03-22T19:12:35.487Z,9.53
2019-03-22T19:15:05.137Z,7.90
2019-03-22T19:17:33.412Z,9.40
2019-03-22T19:20:01.538Z,10.20
2019-03-22T19:22:29.894Z,6.17
2019-03-22T19:24:58.359Z,12.37
2019-03-22T19:27:29.374Z,10.17
2019-03-22T19:29:57.591Z,9.63
2019-03-22T19:32:25.887Z,12.03
2019-03-22T19:34:54.729Z,11.40
2019-03-22T19:37:23.019Z,13.57
2019-03-22T19:39:51.274Z,12.43
2019-03-22T19:42:19.596Z,12.93
2019-03-22T19:44:47.935Z,13.43
2019-03-22T19:47:16.430Z,10.60
2019-03-22T19:49:45.774Z,12.40
2019-03-22T19:52:14.117Z,13.93
2019-03-22T19:54:44.320Z,12.00
2019-03-22T19:57:12.705Z,11.50
2019-03-22T19:59:41.087Z,8.23
2019-03-22T20:02:10.821Z,8.90
2019-03-22T20:04:39.194Z,8.80
2019-03-22T20:07:07.573Z,9.73
2019-03-22T20:09:35.909Z,8.83
2019-03-22T20:12:04.281Z,8.83
2019-03-22T20:14:32.582Z,10.13
2019-03-22T20:17:06.376Z,9.57
2019-03-22T20:19:34.642Z,10.60
2019-03-22T20:22:03.066Z,9.53
2019-03-22T20:24:31.573Z,11.00
2019-03-22T20:27:00.073Z,8.80
2019-03-22T20:29:30.451Z,9.17
2019-03-22T20:31:59.854Z,10.37
2019-03-22T20:34:28.048Z,10.43
2019-03-22T20:36:56.322Z,10.57
2019-03-22T20:39:24.479Z,11.77
2019-03-22T20:41:52.838Z,14.37
2019-03-22T20:44:21.154Z,14.10
2019-03-22T20:46:49.548Z,18.00
2019-03-22T20:49:17.798Z,18.97
2019-03-22T20:51:46.197Z,14.40
2019-03-22T20:54:14.548Z,21.50
2019-03-22T20:56:42.928Z,24.03
2019-03-22T20:59:11.287Z,24.70
2019-03-22T21:01:39.614Z,25.00
2019-03-22T21:04:07.941Z,27.03
2019-03-22T21:06:36.404Z,26.20
2019-03-22T21:09:06.369Z,25.80
2019-03-22T21:11:34.624Z,24.90
2019-03-22T21:14:02.886Z,18.90
2019-03-22T21:16:31.292Z,26.40
2019-03-22T21:18:59.802Z,27.30
2019-03-22T21:21:35.941Z,24.87
2019-03-22T21:23:58.237Z,27.20
2019-03-22T21:26:26.629Z,28.20
2019-03-22T21:28:54.946Z,26.70
2019-03-22T21:31:23.294Z,26.30
2019-03-22T21:33:51.744Z,26.23
2019-03-22T21:36:20.026Z,27.37
2019-03-22T21:38:48.406Z,27.83
2019-03-22T21:41:16.616Z,27.60
2019-03-22T21:43:44.893Z,25.47
2019-03-22T21:46:13.276Z,30.27
2019-03-22T21:48:42.062Z,23.00
2019-03-22T21:51:10.259Z,29.93
2019-03-22T21:53:38.698Z,29.90
2019-03-22T21:56:07.201Z,25.97
2019-03-22T21:58:37.711Z,29.67
2019-03-22T22:01:05.994Z,28.83
2019-03-22T22:03:34.321Z,27.60
2019-03-22T22:06:02.777Z,27.60
2019-03-22T22:08:31.086Z,27.93
2019-03-22T22:11:00.170Z,26.47
2019-03-22T22:13:29.827Z,25.87
2019-03-22T22:15:58.093Z,25.33
2019-03-22T22:18:26.438Z,24.87
2019-03-22T22:20:54.700Z,25.37
2019-03-22T22:23:23.099Z,25.03
2019-03-22T22:25:51.573Z,23.00
2019-03-22T22:28:19.817Z,23.83
2019-03-22T22:30:48.070Z,22.37
2019-03-22T22:33:16.293Z,22.57
2019-03-22T22:35:47.043Z,22.97
2019-03-22T22:38:15.426Z,22.33
2019-03-22T22:40:43.821Z,22.80
2019-03-22T22:43:14.615Z,22.63
2019-03-22T22:45:42.983Z,22.70
2019-03-22T22:48:11.591Z,22.07
2019-03-22T22:50:42.163Z,20.93
2019-03-22T22:53:10.373Z,20.77
2019-03-22T22:55:38.796Z,20.17
2019-03-22T22:58:07.057Z,20.33
2019-03-22T23:00:35.422Z,22.00
2019-03-22T23:03:03.811Z,20.63
2019-03-22T23:05:35.060Z,20.97
2019-03-22T23:08:03.210Z,22.37
2019-03-22T23:10:31.619Z,23.10
2019-03-22T23:12:59.917Z,25.43
2019-03-22T23:15:28.641Z,25.27
2019-03-22T23:17:57.017Z,26.33
2019-03-22T23:20:25.419Z,28.87
2019-03-22T23:22:53.755Z,29.57
2019-03-22T23:25:22.017Z,30.97
2019-03-22T23:27:50.258Z,30.63
2019-03-22T23:30:18.530Z,29.33
2019-03-22T23:32:46.770Z,26.70
2019-03-22T23:35:15.237Z,25.80
2019-03-22T23:37:43.444Z,28.77
2019-03-22T23:40:12.309Z,27.07
2019-03-22T23:42:42.158Z,30.50
2019-03-22T23:45:11.081Z,28.73
2019-03-22T23:47:39.352Z,28.73
2019-03-22T23:50:08.111Z,28.17
2019-03-22T23:52:36.297Z,28.23
2019-03-22T23:55:05.549Z,28.40
2019-03-22T23:57:33.777Z,28.87
